KBIL/BIL METAR and TAF weather

Enter ICAO airport designator
Station Type Date Time Source
KBIL METAR 2018/01/21 11:53 UTC NOAA

KBIL 211153Z 22008KT 10SM CLR M05/M09 A3001 RMK AO2 SLP199 T10501094 11033 21050 51003


Station Type Date Time Source
KBIL Decoded METAR 2018/01/21 11:53 UTC NOAA

LOGAN INTERNATIONAL AIRPORT, MT, United States (KBIL) 45-49N 108-33W 1091M
Jan 21, 2018 - 06:53 AM EST / 2018.01.21 1153 UTC
Wind: from the SW (220 degrees) at 9 MPH (8 KT):0
Visibility: 10 mile(s):0
Sky conditions: clear
Temperature: 23.0 F (-5.0 C)
Windchill: 14 F (-10 C):1
Dew Point: 15.1 F (-9.4 C)
Relative Humidity: 71%
Pressure (altimeter): 30.01 in. Hg (1016 hPa)
Pressure tendency: 0.01 inches (0.3 hPa) higher than three hours ago
ob: KBIL 211153Z 22008KT 10SM CLR M05/M09 A3001 RMK AO2 SLP199 T10501094 11033 21050 51003
cycle: 12

Station Type Date Time Source
KBIL TAF 2018/01/21 12:24 UTC NOAA

TAF KBIL 211123Z 2112/2212 23011KT P6SM FEW180
FM220200 26018G27KT P6SM SKC


Example: see airport list